CheckWX is a tool to help pilots better visualize weather data.  It is not intended as a substitute for an official pre-flight weather briefing.

23:43:16 UTC

K7BM METAR
Cottonwood Pass Airport
Cottonwood Pass, Colorado, USA
Current

13 mins ago

K7BM 222330Z AUTO 26017G30KT 10SM CLR M01/M09 A3000 RMK AO2
Observed
Nov-22 @ 23:30 UTC
Wind
  • 260° at 17 KTS
  • Gusting to 30 KTS
Visibility
10 SM
Flight Rules
VFR
Cloud Levels
  • Clear skies
Temperature
-1°C / 30°F
Dewpoint
-9°C / 16°F
Humidity
55%
Altimeter
30" Hg
Pressure
1015.92 hPa
Previous

31 mins ago

K7BM 222312Z AUTO 28018G30KT 250V310 10SM CLR M01/M09 A2999 RMK AO2
Observed
Nov-22 @ 23:12 UTC
Wind
  • 280° at 18 KTS
  • Gusting to 30 KTS
Visibility
10 SM
Flight Rules
VFR
Cloud Levels
  • Clear skies
Temperature
-1°C / 30°F
Dewpoint
-9°C / 16°F
Humidity
55%
Altimeter
29.99" Hg
Pressure
1015.62 hPa
Previous

55 mins ago

K7BM 222248Z AUTO 28019G30KT 10SM CLR 00/M09 A2999 RMK AO2
Observed
Nov-22 @ 22:48 UTC
Wind
  • 280° at 19 KTS
  • Gusting to 30 KTS
Visibility
10 SM
Flight Rules
VFR
Cloud Levels
  • Clear skies
Temperature
C / 32°F
Dewpoint
-9°C / 16°F
Humidity
51%
Altimeter
29.99" Hg
Pressure
1015.62 hPa